Terminal Aerodrome Forecast
Issued by NWS North Platte, NE

Home | Current Version | Previous Version | Text Only | Print | Product List | Glossary Off
Versions: 1 2 3 4 5 6 7 8 9 10 11 12 13 14 15 16 17 18

000
FTUS43 KLBF 310100 AAA
TAFVTN
TAF AMD
KVTN 310148Z 3102/3124 03009KT P6SM SKC
     FM310700 05007KT P6SM SCT010 OVC020
     FM310900 11006KT P6SM OVC007
     FM311600 15007KT P6SM SKC=

USA.gov is the U.S. government's official web portal to all federal, state and local government web resources and services.